Time;durP1;ratioP1;P1;durP2;ratioP2;P2;SDS_P1;SDS_P2;PMS_P1;PMS_P2;Temp;Humidity;BMP_temperature;BMP_pressure;BME280_temperature;BME280_humidity;BME280_pressure;Samples;Min_cycle;Max_cycle;Signal;HPM_P1;HPM_P2
2022/05/18 00:01:22;;;;;;;5.22;3.05;;;20.00;54.50;;;20.36;46.43;98075.16;5007996;28;20053;-37
2022/05/18 00:03:52;;;;;;;5.53;3.47;;;19.90;54.40;;;20.33;46.34;98070.16;5006979;28;20064;-37
2022/05/18 00:06:20;;;;;;;4.07;3.05;;;19.90;54.50;;;20.30;46.31;98078.69;5008116;28;20056;-37
2022/05/18 00:08:48;;;;;;;3.72;3.35;;;19.80;54.20;;;20.25;45.87;98080.16;5006410;28;20046;-37
2022/05/18 00:11:20;;;;;;;5.13;3.80;;;19.80;54.20;;;20.21;46.28;98073.53;5007030;28;20041;-37
2022/05/18 00:13:50;;;;;;;4.50;3.10;;;19.80;54.40;;;20.19;46.45;98085.59;5005361;28;20054;-37
2022/05/18 00:16:20;;;;;;;4.40;3.13;;;19.80;54.50;;;20.16;46.53;98086.00;5007022;28;20075;-37
2022/05/18 00:18:49;;;;;;;3.55;2.75;;;19.80;54.40;;;20.16;46.10;98089.56;5006449;28;20045;-37
2022/05/18 00:21:17;;;;;;;3.70;3.28;;;19.70;54.30;;;20.13;46.65;98084.56;5006874;28;20056;-37
2022/05/18 00:23:45;;;;;;;5.88;3.45;;;19.70;54.50;;;20.12;46.46;98091.00;5008101;28;20056;-37
2022/05/18 00:26:13;;;;;;;4.13;3.45;;;19.70;54.40;;;20.10;46.66;98094.97;5006782;28;20379;-37
2022/05/18 00:28:41;;;;;;;5.70;3.40;;;19.70;54.50;;;20.08;46.77;98097.06;5006961;28;20060;-37
2022/05/18 00:31:11;;;;;;;5.55;3.67;;;19.70;55.40;;;20.01;47.04;98091.69;5005984;28;20058;-37
2022/05/18 00:33:39;;;;;;;5.10;3.08;;;19.70;54.80;;;20.00;46.76;98081.91;5006963;28;20379;-37
2022/05/18 00:36:07;;;;;;;4.72;2.85;;;19.60;54.70;;;19.96;47.13;98086.06;5007749;28;20049;-37
2022/05/18 00:38:34;;;;;;;4.78;3.90;;;19.60;55.00;;;19.95;47.36;98097.91;5005474;28;20050;-37
2022/05/18 00:41:02;;;;;;;6.80;3.80;;;19.50;55.30;;;19.92;47.16;98092.94;5020997;28;20054;-37
2022/05/18 00:43:30;;;;;;;5.28;3.95;;;19.50;55.30;;;19.86;46.94;98084.63;5006364;28;20073;-37
2022/05/18 00:46:01;;;;;;;4.03;3.42;;;19.50;55.30;;;19.84;47.25;98086.69;5007241;28;20045;-37
2022/05/18 00:48:29;;;;;;;6.18;3.15;;;19.50;55.60;;;19.81;47.22;98095.25;5007149;28;20344;-37
2022/05/18 00:51:01;;;;;;;6.00;3.53;;;19.40;55.70;;;19.78;47.54;98078.63;5006373;28;20256;-37
2022/05/18 00:53:40;;;;;;;5.95;3.60;;;19.40;56.10;;;19.76;47.58;98084.22;5006681;28;20064;-37
2022/05/18 00:56:14;;;;;;;5.80;4.50;;;19.40;56.60;;;19.73;47.71;98079.22;5006035;28;20060;-37
2022/05/18 00:59:01;;;;;;;4.72;4.20;;;19.30;56.80;;;19.68;47.79;98073.63;5006023;28;20065;-37
2022/05/18 01:01:30;;;;;;;5.57;4.15;;;19.30;57.40;;;19.67;47.78;98074.63;5004915;28;20053;-37
2022/05/18 01:04:00;;;;;;;4.65;3.83;;;19.20;56.50;;;19.62;47.99;98077.16;5005098;28;20049;-37
2022/05/18 01:06:42;;;;;;;4.70;4.20;;;19.20;56.80;;;19.57;48.03;98085.88;5005428;28;20057;-37
2022/05/18 01:09:35;;;;;;;8.05;4.07;;;19.10;57.90;;;19.52;48.06;98082.94;5006047;28;20290;-37
2022/05/18 01:12:06;;;;;;;5.70;4.68;;;19.10;58.30;;;19.47;48.19;98088.97;5006001;28;20243;-37
2022/05/18 01:14:47;;;;;;;6.57;4.32;;;19.00;57.30;;;19.42;48.44;98079.84;5005665;28;20060;-37
2022/05/18 01:17:23;;;;;;;7.72;4.80;;;18.90;58.10;;;19.37;48.51;98085.03;5006234;28;20046;-37
2022/05/18 01:19:54;;;;;;;5.55;4.50;;;18.80;57.90;;;19.32;48.56;98087.53;5007079;28;20053;-37
2022/05/18 01:23:26;;;;;;;4.88;4.47;;;18.80;58.00;;;19.27;48.58;98082.75;5006244;28;20279;-37
2022/05/18 01:26:16;;;;;;;5.03;3.65;;;18.80;58.60;;;19.31;48.24;98093.94;5007138;28;20072;-37
2022/05/18 01:28:53;;;;;;;4.45;3.72;;;18.90;57.70;;;19.32;49.00;98095.63;5005094;28;20045;-37
2022/05/18 01:31:47;;;;;;;7.90;4.25;;;19.00;57.80;;;19.30;49.76;98100.41;5005804;28;20072;-37
2022/05/18 01:34:20;;;;;;;4.80;3.70;;;19.10;59.30;;;19.26;49.71;98105.38;4988681;28;20056;-37
2022/05/18 01:36:49;;;;;;;5.07;3.83;;;18.90;58.50;;;19.21;49.77;98107.84;5005898;28;20049;-37
2022/05/18 01:39:38;;;;;;;7.28;4.80;;;18.90;58.40;;;19.21;50.05;98097.91;5005900;28;20054;-37
2022/05/18 01:42:06;;;;;;;5.25;4.28;;;19.00;59.50;;;19.19;50.01;98099.13;5006947;28;20060;-38
2022/05/18 01:44:42;;;;;;;6.25;3.60;;;18.90;58.60;;;19.20;49.73;98104.31;5006911;28;20060;-37
2022/05/18 01:47:10;;;;;;;4.32;3.88;;;18.90;58.60;;;19.21;50.07;98100.59;5006091;28;20057;-37
2022/05/18 01:49:42;;;;;;;6.47;4.13;;;19.00;57.90;;;19.25;49.60;98099.16;5006210;28;20060;-37
2022/05/18 01:52:12;;;;;;;5.03;3.53;;;19.00;57.70;;;19.31;49.35;98102.03;5005410;28;20046;-37
2022/05/18 01:54:44;;;;;;;9.02;4.32;;;19.10;57.60;;;19.31;49.24;98102.03;5007578;28;20049;-37
2022/05/18 01:57:13;;;;;;;4.65;3.53;;;19.20;57.00;;;19.33;49.12;98103.53;5007364;28;20056;-37
2022/05/18 01:59:42;;;;;;;5.15;3.30;;;19.20;56.80;;;19.35;49.08;98100.59;5005971;28;20049;-37
2022/05/18 02:02:10;;;;;;;4.93;3.90;;;19.20;56.80;;;19.36;49.10;98096.88;5005603;28;20370;-37
2022/05/18 02:04:40;;;;;;;7.05;3.65;;;19.30;56.80;;;19.36;49.13;98104.97;5006687;28;20057;-37
2022/05/18 02:07:10;;;;;;;4.25;3.60;;;19.20;56.60;;;19.34;49.33;98101.66;5005565;28;20060;-37
2022/05/18 02:09:38;;;;;;;4.82;3.20;;;19.20;56.80;;;19.28;49.30;98103.28;5003461;28;20060;-37
2022/05/18 02:12:09;;;;;;;3.67;3.28;;;19.10;57.30;;;19.24;49.26;98097.47;5007073;28;20171;-37
2022/05/18 02:14:37;;;;;;;6.63;4.18;;;18.90;57.60;;;19.19;49.38;98093.72;5007007;28;20060;-37
2022/05/18 02:17:05;;;;;;;4.18;3.78;;;18.80;57.70;;;19.14;49.47;98097.06;5006674;28;20371;-37
2022/05/18 02:19:33;;;;;;;5.55;3.28;;;18.80;57.90;;;19.11;49.51;98104.72;5005836;28;20050;-37
2022/05/18 02:22:01;;;;;;;5.53;4.22;;;18.70;57.90;;;19.07;49.44;98099.72;5009638;28;20076;-37
2022/05/18 02:24:30;;;;;;;5.25;3.50;;;18.80;57.70;;;19.10;49.44;98092.28;5009699;28;20057;-37
2022/05/18 02:26:57;;;;;;;4.82;3.42;;;18.80;57.50;;;19.07;49.60;98098.91;5008904;28;20240;-37
2022/05/18 02:29:25;;;;;;;5.18;3.35;;;18.80;57.60;;;19.06;49.56;98098.06;5009674;28;20056;-37
2022/05/18 02:31:53;;;;;;;7.45;4.13;;;18.80;57.60;;;19.04;49.61;98100.16;5008955;28;20348;-37
2022/05/18 02:34:21;;;;;;;5.05;3.47;;;18.80;57.60;;;19.05;49.66;98109.06;5009264;28;20049;-37
2022/05/18 02:36:49;;;;;;;11.35;3.95;;;18.80;58.50;;;19.01;49.64;98115.91;5009261;28;20046;-37
2022/05/18 02:39:20;;;;;;;4.38;3.30;;;18.70;58.00;;;18.94;49.73;98123.16;5009016;28;20046;-37
2022/05/18 02:41:49;;;;;;;5.97;3.38;;;18.60;58.40;;;18.86;49.89;98116.91;5008786;28;20235;-37
2022/05/18 02:44:18;;;;;;;7.72;3.80;;;18.50;58.80;;;18.81;50.12;98118.56;5009060;28;20056;-37
2022/05/18 02:46:46;;;;;;;4.25;3.53;;;18.40;59.00;;;18.77;50.35;98122.66;5008834;28;20080;-37
2022/05/18 02:49:15;;;;;;;5.38;3.83;;;18.30;59.20;;;18.76;50.29;98123.69;5008910;28;20486;-37
2022/05/18 02:51:43;;;;;;;5.90;3.80;;;18.40;59.10;;;18.76;50.36;98121.00;5009674;28;20084;-37
2022/05/18 02:57:04;;;;;;;5.68;3.53;;;18.40;59.00;;;18.71;50.43;98116.22;5009071;28;20275;-37
2022/05/18 02:59:33;;;;;;;6.22;3.20;;;18.40;59.10;;;18.69;50.53;98116.41;5008324;28;20057;-37
2022/05/18 03:02:02;;;;;;;5.35;3.70;;;18.40;59.20;;;18.68;50.59;98125.50;5008649;28;20049;-37
2022/05/18 03:04:30;;;;;;;4.38;3.92;;;18.40;59.20;;;18.66;50.57;98124.06;5009187;28;20034;-37
2022/05/18 03:06:59;;;;;;;6.40;5.47;;;18.40;59.10;;;18.65;50.66;98123.25;5009203;28;20053;-37
2022/05/18 03:09:27;;;;;;;5.40;3.50;;;18.40;58.90;;;18.66;50.96;98124.06;5008367;28;20060;-37
2022/05/18 03:11:56;;;;;;;4.97;3.85;;;18.50;58.70;;;18.65;50.57;98119.69;5009320;28;20378;-37
2022/05/18 03:14:25;;;;;;;4.63;3.30;;;18.50;58.80;;;18.66;50.61;98118.66;5005780;28;20248;-37
2022/05/18 03:16:53;;;;;;;5.30;3.47;;;18.50;58.70;;;18.66;50.50;98122.19;5008457;28;20049;-37
2022/05/18 03:19:23;;;;;;;4.65;3.42;;;18.50;58.50;;;18.63;50.62;98124.44;5007623;28;20532;-37
2022/05/18 03:24:38;;;;;;;5.22;3.30;;;18.50;58.70;;;18.64;50.51;98126.13;5009187;28;20050;-37
2022/05/18 03:27:06;;;;;;;6.13;4.13;;;18.40;58.70;;;18.64;50.50;98123.44;5008409;28;20058;-37
2022/05/18 03:29:34;;;;;;;5.82;3.80;;;18.40;58.50;;;18.64;50.50;98126.13;5007507;28;20060;-37
2022/05/18 03:32:02;;;;;;;5.95;3.65;;;18.50;58.70;;;18.65;50.40;98125.09;5005057;28;20068;-37
2022/05/18 03:34:30;;;;;;;4.05;3.65;;;18.50;58.60;;;18.62;50.32;98130.91;5008317;28;20060;-37
2022/05/18 03:36:57;;;;;;;4.78;3.95;;;18.40;58.40;;;18.61;50.57;98132.78;5008087;28;20065;-37
2022/05/18 03:39:27;;;;;;;5.90;4.07;;;18.40;58.70;;;18.60;50.61;98128.41;5005900;28;20053;-37
2022/05/18 03:41:55;;;;;;;7.55;4.15;;;18.40;58.80;;;18.56;50.66;98137.09;5009158;28;20060;-37
2022/05/18 03:44:23;;;;;;;5.20;3.40;;;18.30;59.10;;;18.52;50.58;98136.66;5007488;28;20056;-37
2022/05/18 03:46:51;;;;;;;4.72;4.05;;;18.20;59.10;;;18.50;50.60;98142.25;5007610;28;20064;-37
2022/05/18 03:49:19;;;;;;;5.55;3.67;;;18.20;59.30;;;18.45;50.90;98142.00;5007434;28;20354;-37
2022/05/18 03:51:47;;;;;;;6.63;4.07;;;18.10;59.50;;;18.42;50.92;98141.59;5008764;28;20239;-37
2022/05/18 03:54:15;;;;;;;7.93;4.55;;;18.10;59.80;;;18.40;51.13;98146.34;5007624;28;20269;-37
2022/05/18 03:56:43;;;;;;;6.22;3.67;;;18.00;59.90;;;18.37;51.17;98144.03;5007728;28;20045;-37
2022/05/18 03:59:11;;;;;;;4.47;3.83;;;18.00;60.10;;;18.33;51.31;98149.00;5007162;28;20041;-37
2022/05/18 04:01:41;;;;;;;5.25;3.97;;;17.90;60.20;;;18.34;51.22;98157.91;5006919;28;20048;-37
2022/05/18 04:04:09;;;;;;;5.47;3.83;;;17.90;60.30;;;18.34;51.23;98156.06;5005904;28;20117;-37
2022/05/18 04:06:37;;;;;;;7.55;4.18;;;17.90;60.40;;;18.35;51.22;98156.88;5007254;28;20038;-37
2022/05/18 04:09:05;;;;;;;5.30;4.28;;;17.90;60.30;;;18.33;51.17;98159.78;5007364;28;20053;-37
2022/05/18 04:11:32;;;;;;;8.23;4.40;;;17.90;60.50;;;18.34;51.17;98156.06;5007865;28;20053;-37
2022/05/18 04:14:03;;;;;;;6.75;3.97;;;17.90;60.30;;;18.36;51.24;98161.22;5007566;28;20056;-37
2022/05/18 04:16:31;;;;;;;4.43;3.72;;;18.00;60.30;;;18.40;51.04;98162.53;5006518;28;20060;-37
2022/05/18 04:18:59;;;;;;;6.22;3.83;;;18.00;59.70;;;18.39;51.08;98164.38;5007095;28;20245;-37
2022/05/18 04:21:27;;;;;;;6.05;4.07;;;18.10;59.80;;;18.39;50.94;98163.53;5007802;28;20049;-36
2022/05/18 04:23:55;;;;;;;9.57;4.28;;;18.00;59.70;;;18.36;51.24;98170.16;5005718;28;20050;-36
2022/05/18 04:26:23;;;;;;;4.47;3.80;;;18.00;59.90;;;18.36;51.31;98166.63;5007722;28;20221;-36
2022/05/18 04:28:51;;;;;;;7.38;3.35;;;18.00;59.90;;;18.34;51.10;98168.69;5006926;28;20057;-37
2022/05/18 04:31:19;;;;;;;5.32;3.85;;;18.00;59.90;;;18.35;51.17;98168.50;5007524;28;20058;-37
2022/05/18 04:33:47;;;;;;;3.65;3.05;;;18.00;59.80;;;18.35;51.39;98160.41;5006907;28;20061;-37
2022/05/18 04:36:14;;;;;;;4.57;3.78;;;18.00;59.80;;;18.35;51.22;98167.66;5007662;28;20052;-37
2022/05/18 04:38:42;;;;;;;6.70;4.47;;;18.00;59.90;;;18.34;51.40;98171.38;5007247;28;20107;-37
2022/05/18 04:41:11;;;;;;;5.45;3.58;;;18.00;60.10;;;18.31;51.38;98172.63;5006636;28;20064;-36
2022/05/18 04:43:39;;;;;;;7.07;3.97;;;18.00;60.20;;;18.30;51.54;98174.50;5006117;28;20362;-37
2022/05/18 04:46:07;;;;;;;4.35;3.95;;;18.00;60.30;;;18.32;51.51;98173.44;5007732;28;20060;-37
2022/05/18 04:48:35;;;;;;;4.68;3.10;;;18.00;60.20;;;18.35;51.37;98171.19;5006853;28;20050;-36
2022/05/18 04:51:05;;;;;;;4.30;3.20;;;18.10;59.90;;;18.39;51.43;98185.09;5006185;28;20053;-36
2022/05/18 04:53:36;;;;;;;5.90;3.83;;;18.10;59.70;;;18.44;51.25;98185.34;5006965;28;20086;-37
2022/05/18 04:56:05;;;;;;;4.82;3.72;;;18.20;59.40;;;18.50;51.05;98189.94;5007312;28;20046;-37
2022/05/18 04:58:34;;;;;;;5.15;3.40;;;18.30;59.10;;;18.55;51.17;98184.78;5007324;28;20072;-36
2022/05/18 05:01:06;;;;;;;4.25;3.20;;;18.50;59.10;;;18.61;50.89;98189.38;5007967;28;20385;-38
2022/05/18 05:03:34;;;;;;;6.47;3.50;;;18.50;58.40;;;18.67;50.66;98193.97;5006737;28;20064;-38
2022/05/18 05:06:04;;;;;;;4.53;3.65;;;18.60;58.10;;;18.72;50.61;98193.38;5007225;28;20054;-38
2022/05/18 05:08:34;;;;;;;5.90;4.45;;;18.70;58.10;;;18.76;50.58;98200.03;5006948;28;20251;-38
2022/05/18 05:11:04;;;;;;;5.03;3.58;;;18.70;58.10;;;18.77;50.70;98200.88;5006807;28;20062;-38
2022/05/18 05:13:33;;;;;;;5.47;3.20;;;18.70;58.10;;;18.80;50.70;98198.63;5007074;28;20339;-38
2022/05/18 05:16:07;;;;;;;4.45;3.22;;;18.70;58.20;;;18.83;50.65;98195.53;5005769;28;20045;-38
2022/05/18 05:18:37;;;;;;;4.75;3.80;;;18.80;58.30;;;18.86;50.72;98203.25;5005637;28;20352;-37
2022/05/18 05:21:05;;;;;;;6.13;3.85;;;18.80;58.30;;;18.87;50.98;98209.47;5006011;28;20050;-38
2022/05/18 05:23:33;;;;;;;7.35;3.70;;;18.80;58.50;;;18.87;50.93;98206.75;5006384;28;20053;-37
2022/05/18 05:26:01;;;;;;;8.35;3.80;;;18.80;58.40;;;18.89;51.06;98210.09;5006570;28;20053;-38
2022/05/18 05:28:29;;;;;;;4.88;4.20;;;18.90;58.50;;;18.93;51.09;98215.91;5005096;28;20046;-37
2022/05/18 05:31:07;;;;;;;6.45;4.40;;;18.90;58.60;;;18.94;51.29;98218.41;5006267;28;20045;-37
2022/05/18 05:33:37;;;;;;;7.70;3.65;;;18.90;58.80;;;18.99;51.16;98218.63;5006806;28;20064;-37
2022/05/18 05:36:06;;;;;;;5.43;4.32;;;18.90;58.90;;;19.01;51.28;98221.97;5004323;28;20052;-37
2022/05/18 05:38:34;;;;;;;5.45;3.95;;;18.90;58.90;;;19.02;51.06;98220.94;5007229;28;20046;-37
2022/05/18 05:41:03;;;;;;;5.20;3.60;;;18.90;59.00;;;19.04;51.35;98220.75;5006923;28;20050;-37
2022/05/18 05:43:31;;;;;;;6.13;3.70;;;18.90;58.90;;;19.07;51.38;98225.72;5005906;28;20076;-37
2022/05/18 05:46:06;;;;;;;5.40;4.10;;;19.00;58.90;;;19.11;51.47;98229.69;5005496;28;20050;-38
2022/05/18 05:48:34;;;;;;;6.32;4.07;;;19.00;59.30;;;19.13;51.55;98229.47;5004544;28;20046;-37
2022/05/18 05:51:04;;;;;;;9.68;3.90;;;19.10;59.30;;;19.18;51.56;98235.13;5006885;28;20076;-37
2022/05/18 05:53:32;;;;;;;5.57;3.83;;;19.10;59.40;;;19.19;51.64;98232.22;5004524;28;20056;-37
2022/05/18 05:56:01;;;;;;;5.57;3.88;;;19.20;59.30;;;19.21;51.36;98230.16;5009678;28;20046;-37
2022/05/18 05:58:33;;;;;;;8.30;3.63;;;19.20;59.00;;;19.22;51.55;98234.50;5008033;28;20050;-37
2022/05/18 06:01:08;;;;;;;7.80;4.82;;;19.20;59.80;;;19.21;51.60;98227.44;5007544;28;20060;-37
2022/05/18 06:03:37;;;;;;;7.47;4.07;;;19.20;59.00;;;19.27;51.38;98233.91;5009155;28;20284;-37
2022/05/18 06:06:05;;;;;;;4.55;3.60;;;19.30;58.90;;;19.34;51.45;98231.22;5011660;28;20046;-37
2022/05/18 06:08:33;;;;;;;5.28;4.78;;;19.30;58.60;;;19.39;51.19;98234.97;5015213;28;20256;-37
2022/05/18 06:11:03;;;;;;;4.90;3.80;;;19.40;58.50;;;19.33;51.32;98227.69;5009506;28;20048;-37
2022/05/18 06:13:32;;;;;;;6.35;4.20;;;19.40;59.10;;;19.32;51.13;98228.72;5008034;28;20272;-37
2022/05/18 06:16:01;;;;;;;7.22;4.78;;;19.50;58.30;;;19.37;51.17;98234.34;5007701;28;20056;-37
2022/05/18 06:18:30;;;;;;;5.90;3.30;;;19.50;58.10;;;19.39;50.84;98232.28;5007234;28;20038;-37
2022/05/18 06:20:59;;;;;;;8.27;3.75;;;19.60;57.70;;;19.45;50.89;98236.03;5010002;28;20236;-37
2022/05/18 06:23:27;;;;;;;7.82;4.00;;;19.60;57.70;;;19.48;50.58;98241.88;5010986;28;20057;-37
2022/05/18 06:26:05;;;;;;;9.65;3.60;;;19.60;57.50;;;19.50;50.47;98247.03;5009531;28;20049;-37
2022/05/18 06:28:36;;;;;;;10.98;3.80;;;19.70;56.90;;;19.54;50.40;98242.06;5008416;28;20046;-37
2022/05/18 06:31:05;;;;;;;7.00;4.00;;;19.70;57.00;;;19.54;50.41;98247.47;5009053;28;20053;-37
2022/05/18 06:33:34;;;;;;;7.50;3.95;;;19.70;56.90;;;19.57;50.52;98244.38;5008508;28;20049;-37
2022/05/18 06:36:03;;;;;;;5.10;3.80;;;19.70;57.10;;;19.58;50.45;98246.00;5009714;28;20049;-37
2022/05/18 06:38:31;;;;;;;4.85;4.30;;;19.80;57.00;;;19.61;50.57;98251.84;5007300;28;20060;-37
2022/05/18 06:43:45;;;;;;;5.72;3.88;;;19.80;57.00;;;19.67;50.50;98242.09;5009957;28;20049;-37
2022/05/18 06:46:13;;;;;;;7.43;4.55;;;19.80;57.00;;;19.73;50.74;98243.19;5009395;28;20052;-37
2022/05/18 06:48:42;;;;;;;5.97;4.03;;;19.90;57.30;;;19.78;51.11;98248.81;5008658;28;20366;-37
2022/05/18 06:51:28;;;;;;;4.80;3.60;;;19.90;57.80;;;19.83;50.97;98244.44;5008932;28;20053;-37
2022/05/18 06:53:56;;;;;;;5.32;3.35;;;20.00;57.90;;;19.92;50.80;98246.94;5008450;28;20046;-38
2022/05/18 06:56:28;;;;;;;6.07;3.63;;;20.00;57.50;;;19.94;50.62;98244.88;5009997;28;20407;-37
2022/05/18 06:58:57;;;;;;;5.82;3.33;;;20.10;57.50;;;20.00;50.92;98250.25;5009321;28;20046;-38
2022/05/18 07:01:28;;;;;;;4.93;3.88;;;20.10;57.80;;;20.05;50.99;98246.97;5008947;28;20434;-38
2022/05/18 07:03:57;;;;;;;4.70;3.78;;;20.20;58.10;;;20.13;50.82;98246.75;5009617;28;20475;-38
2022/05/18 07:06:41;;;;;;;5.07;3.60;;;20.20;58.00;;;20.19;50.47;98243.22;5009376;28;20053;-38
2022/05/18 07:09:17;;;;;;;4.38;3.30;;;20.30;57.50;;;20.25;50.77;98247.78;5007630;28;20129;-37
2022/05/18 07:11:49;;;;;;;8.07;3.45;;;20.40;57.80;;;20.32;51.41;98253.19;5007923;28;20081;-37
2022/05/18 07:18:30;;;;;;;7.72;4.20;;;20.50;58.70;;;20.48;51.59;98248.41;5008777;28;20049;-38
2022/05/18 07:21:00;;;;;;;5.25;4.15;;;20.60;58.80;;;20.52;51.72;98249.63;5007317;28;20340;-38
2022/05/18 07:23:28;;;;;;;6.50;4.07;;;20.60;58.80;;;20.57;51.72;98247.13;4989941;28;20065;-38
2022/05/18 07:25:58;;;;;;;7.95;4.97;;;20.60;58.80;;;20.63;51.77;98254.44;5007421;28;20038;-38
2022/05/18 07:28:27;;;;;;;5.45;3.88;;;20.70;59.00;;;20.69;51.46;98253.59;5008311;28;20049;-38
2022/05/18 07:30:55;;;;;;;8.07;4.47;;;20.80;59.00;;;20.75;51.67;98252.75;5007484;28;20057;-38
2022/05/18 07:33:25;;;;;;;5.82;4.13;;;20.80;58.90;;;20.78;51.32;98251.47;5008739;28;20076;-37
2022/05/18 07:35:55;;;;;;;7.60;4.38;;;20.90;59.00;;;20.83;51.60;98251.69;5008474;28;20325;-38
2022/05/18 07:38:27;;;;;;;5.38;3.78;;;20.90;59.00;;;20.89;51.85;98252.72;5007203;28;20311;-38
2022/05/18 07:41:06;;;;;;;5.60;3.95;;;21.00;59.10;;;20.93;51.66;98252.06;5007232;28;20237;-38
2022/05/18 07:43:35;;;;;;;16.52;5.97;;;21.00;58.90;;;20.98;51.50;98254.16;5007735;28;20050;-38
2022/05/18 07:46:03;;;;;;;10.07;4.60;;;21.00;58.50;;;21.03;51.12;98251.59;5007811;28;20372;-38
2022/05/18 07:48:32;;;;;;;7.00;4.63;;;21.10;58.60;;;21.09;51.28;98252.63;5005257;28;20451;-38
2022/05/18 07:51:00;;;;;;;12.98;4.25;;;21.20;58.50;;;21.14;50.99;98250.94;5033483;28;20052;-38
2022/05/18 07:53:28;;;;;;;6.15;3.95;;;21.30;58.60;;;21.22;50.64;98252.56;5039547;28;20041;-38
2022/05/18 07:55:56;;;;;;;9.02;4.18;;;21.30;57.90;;;21.28;50.39;98243.59;5037666;28;20068;-38
2022/05/18 07:58:24;;;;;;;6.38;3.90;;;21.40;57.70;;;21.35;50.75;98246.28;5038617;28;20045;-38
2022/05/18 08:00:52;;;;;;;6.18;3.70;;;21.50;57.50;;;21.41;50.29;98248.13;5043154;28;20075;-38
2022/05/18 08:03:21;;;;;;;10.02;3.97;;;21.50;57.20;;;21.47;50.27;98243.75;5040937;28;20217;-38
2022/05/18 08:05:51;;;;;;;6.63;3.50;;;21.60;56.80;;;21.52;49.83;98247.47;5040838;28;20033;-38
2022/05/18 08:08:21;;;;;;;7.47;4.07;;;21.70;56.50;;;21.57;49.58;98247.63;5053019;28;20050;-38
2022/05/18 08:16:25;;;;;;;6.38;3.92;;;21.80;56.40;;;21.76;49.60;98248.56;5042717;28;20279;-38
2022/05/18 08:18:53;;;;;;;5.20;3.90;;;21.90;56.30;;;21.79;48.78;98247.28;5036009;28;20351;-38
2022/05/18 08:21:22;;;;;;;9.77;4.45;;;21.90;55.60;;;21.85;48.79;98256.44;5037906;28;20045;-38
2022/05/18 08:23:52;;;;;;;6.22;4.07;;;22.00;55.10;;;21.88;48.66;98250.59;5039309;28;20045;-38
2022/05/18 08:26:25;;;;;;;5.20;3.67;;;22.00;55.10;;;21.92;48.89;98252.63;5039487;28;20050;-38
2022/05/18 08:28:54;;;;;;;6.90;3.72;;;22.00;55.90;;;21.98;48.13;98257.19;5038492;28;20053;-38
2022/05/18 08:31:26;;;;;;;4.88;3.50;;;22.20;54.90;;;22.04;48.23;98252.75;5039067;28;20056;-38
2022/05/18 08:33:56;;;;;;;6.45;3.75;;;22.20;54.40;;;22.10;48.06;98256.44;5038102;28;20049;-39
2022/05/18 08:36:26;;;;;;;5.63;3.90;;;22.20;54.30;;;22.12;47.53;98255.19;5038942;28;20056;-38
2022/05/18 08:38:55;;;;;;;5.28;4.03;;;22.30;54.10;;;22.18;47.61;98256.19;5039048;28;20058;-38
2022/05/18 08:41:32;;;;;;;4.78;3.42;;;22.30;53.50;;;22.23;47.25;98256.34;5054397;28;20358;-38
2022/05/18 08:44:07;;;;;;;5.20;3.92;;;22.40;53.30;;;22.31;47.23;98261.53;5037709;28;20048;-38
2022/05/18 08:47:06;;;;;;;5.82;3.92;;;22.50;53.60;;;22.38;47.24;98261.47;5038748;28;20051;-38
2022/05/18 08:49:59;;;;;;;6.82;4.22;;;22.60;52.80;;;22.42;46.44;98265.41;5038745;28;20365;-38
2022/05/18 08:53:06;;;;;;;7.45;5.75;;;22.60;52.60;;;22.45;45.68;98262.25;5054196;28;20344;-38
2022/05/18 08:55:41;;;;;;;6.10;4.20;;;22.60;51.70;;;22.52;46.37;98259.47;5022273;28;20060;-38
2022/05/18 08:58:36;;;;;;;6.70;3.70;;;22.70;51.90;;;22.55;46.47;98259.84;5021433;28;20038;-38
2022/05/18 09:01:46;;;;;;;5.00;3.60;;;22.70;52.20;;;22.63;46.05;98253.31;5020948;28;20046;-38
2022/05/18 09:04:32;;;;;;;7.28;4.97;;;22.80;51.30;;;22.69;46.10;98257.84;5021097;28;20288;-56
2022/05/18 09:07:09;;;;;;;8.15;3.35;;;22.80;51.90;;;22.74;45.54;98252.56;5021420;28;20239;-55
2022/05/18 09:10:13;;;;;;;4.53;3.30;;;22.90;50.80;;;22.81;45.21;98255.22;5020654;28;20050;-57
2022/05/18 09:12:47;;;;;;;4.40;3.67;;;23.00;50.10;;;22.88;44.84;98255.97;5014152;28;20046;-56
2022/05/18 09:15:20;;;;;;;5.60;3.50;;;23.00;50.30;;;22.91;44.19;98255.50;5012412;28;20060;-56
2022/05/18 09:18:01;;;;;;;5.47;3.25;;;23.10;50.30;;;22.99;43.75;98257.09;5004988;28;20058;-56
2022/05/18 09:20:58;;;;;;;4.43;3.90;;;23.10;48.50;;;23.00;42.77;98256.88;5007838;28;20056;-57
2022/05/18 09:23:55;;;;;;;5.28;3.17;;;23.10;47.80;;;23.06;41.87;98257.06;5005660;28;20046;-55
2022/05/18 09:26:50;;;;;;;3.50;2.83;;;23.30;47.90;;;23.10;41.01;98250.13;5006016;28;20083;-57
2022/05/18 09:29:58;;;;;;;8.23;3.40;;;23.20;45.30;;;23.13;41.97;98255.94;5007202;28;20519;-55
2022/05/18 09:33:02;;;;;;;5.80;3.67;;;23.20;46.40;;;23.20;41.92;98247.69;5010367;28;20245;-56
2022/05/18 09:35:37;;;;;;;4.95;3.20;;;23.30;46.60;;;23.29;41.68;98254.47;5012584;28;20045;-57
2022/05/18 09:38:25;;;;;;;5.30;2.85;;;23.40;46.10;;;23.36;41.04;98248.94;5010991;28;20056;-57
2022/05/18 09:40:52;;;;;;;3.83;3.05;;;23.50;45.20;;;23.41;40.99;98249.09;5010063;28;20064;-55
2022/05/18 09:43:29;;;;;;;7.78;3.25;;;23.60;45.50;;;23.46;41.08;98243.81;5009788;28;20064;-57
2022/05/18 09:45:58;;;;;;;4.75;3.15;;;23.60;45.40;;;23.49;40.41;98240.63;5011216;28;20050;-53
2022/05/18 09:48:37;;;;;;;4.23;2.93;;;23.70;44.70;;;23.53;40.35;98243.72;5009460;28;20263;-51
2022/05/18 09:51:08;;;;;;;4.40;3.28;;;23.70;44.30;;;23.57;41.11;98240.31;5010230;28;20595;-57
2022/05/18 09:53:39;;;;;;;5.00;2.80;;;23.70;45.50;;;23.59;41.02;98243.63;5009812;28;20050;-58
2022/05/18 09:56:30;;;;;;;3.70;2.97;;;23.80;45.40;;;23.63;40.04;98235.81;5010177;28;20057;-57
2022/05/18 09:59:07;;;;;;;3.22;2.92;;;23.80;43.70;;;23.69;40.22;98237.63;5008626;28;20060;-58
2022/05/18 10:07:32;;;;;;;4.10;3.05;;;24.00;43.00;;;23.84;37.54;98229.06;5009962;28;20054;-59
2022/05/18 10:10:09;;;;;;;3.65;3.08;;;24.00;42.80;;;23.87;37.65;98217.75;5009613;28;20507;-55
2022/05/18 10:12:43;;;;;;;4.05;2.83;;;24.00;41.00;;;23.91;38.26;98227.09;5009450;28;20267;-51
2022/05/18 10:15:46;;;;;;;5.38;3.20;;;24.10;42.80;;;23.97;38.55;98217.16;5009135;28;20054;-55
2022/05/18 10:18:46;;;;;;;3.92;3.30;;;24.20;40.60;;;24.03;38.04;98229.00;5006148;28;20149;-55
2022/05/18 10:21:39;;;;;;;5.70;3.22;;;24.20;40.90;;;24.09;38.28;98230.78;5009938;28;20058;-53
2022/05/18 10:24:46;;;;;;;4.32;2.97;;;24.30;42.30;;;24.12;37.73;98214.81;5009018;28;20371;-54
2022/05/18 10:27:16;;;;;;;4.05;2.70;;;24.30;40.20;;;24.16;37.78;98226.06;5008774;28;20061;-53
2022/05/18 10:29:52;;;;;;;3.45;2.58;;;24.30;41.40;;;24.21;36.69;98217.19;5008315;28;20054;-55
2022/05/18 10:32:24;;;;;;;4.20;2.60;;;24.40;39.80;;;24.23;35.93;98231.38;5009286;28;20332;-55
2022/05/18 10:34:54;;;;;;;3.03;2.22;;;24.40;39.70;;;24.27;36.04;98221.69;5009249;28;20084;-56
2022/05/18 10:37:32;;;;;;;2.38;2.10;;;24.50;39.90;;;24.33;36.26;98223.44;4991482;28;20057;-55
2022/05/18 10:40:10;;;;;;;3.70;2.50;;;24.50;38.50;;;24.37;35.59;98230.94;5009355;28;20346;-54
2022/05/18 10:42:52;;;;;;;4.75;2.47;;;24.60;38.80;;;24.43;35.25;98229.16;5015105;28;20348;-53
2022/05/18 10:45:26;;;;;;;3.03;2.60;;;24.60;37.60;;;24.46;35.46;98225.13;5024158;28;20742;-52
2022/05/18 10:48:16;;;;;;;2.97;2.40;;;24.60;38.40;;;24.51;36.98;98215.22;5008808;28;20225;-54
2022/05/18 10:50:45;;;;;;;4.22;3.00;;;24.70;40.80;;;24.54;36.70;98213.91;5008615;28;20062;-55
2022/05/18 10:53:13;;;;;;;4.65;3.00;;;24.80;40.30;;;24.59;37.83;98214.03;5008678;28;20200;-55
2022/05/18 10:56:29;;;;;;;3.03;2.72;;;24.80;41.50;;;24.64;35.99;98214.16;5008990;28;20057;-54
2022/05/18 10:59:37;;;;;;;3.17;2.88;;;24.90;39.60;;;24.72;35.49;98215.69;5007622;28;20363;-55
2022/05/18 11:02:18;;;;;;;5.00;2.80;;;24.90;38.80;;;24.77;36.35;98204.88;5008090;28;20086;-55
2022/05/18 11:05:36;;;;;;;3.63;3.08;;;24.90;39.70;;;24.79;37.84;98208.19;5008701;28;20239;-54
2022/05/18 11:08:14;;;;;;;5.07;3.50;;;25.00;41.20;;;24.85;37.96;98195.53;5008205;28;20095;-50
2022/05/18 11:10:50;;;;;;;4.25;3.05;;;25.10;41.50;;;24.91;37.53;98189.09;5009109;28;20053;-53